Station: WUDINNA AP

  Atmospheric Gas Attenuation - ITU Rec 676-11   --------------- db/100km ---------------
Date Time Temp RH % AH g/m3 Dew Point Wind Direction Speed kph Gust kph Barometer mB Rainfall Since 9am 24GHz 47GHz 76GHz 122GHz 134GHz 241GHz
03 08:10 14.7 72 9.07 9.7 13 20 1020.7 0 20.5 26.7 41.6 109.1 104.1 358.4
03 08:00 14 76 9.17 9.8 15 22 1020.3 0 20.8 27.0 42.3 111.1 106.3 366.2
03 07:50 13.4 77 8.95 9.5 13 17 1020.7 0 20.3 26.9 41.8 109.6 104.2 358.7
03 07:40 13.2 78 8.96 9.5 15 17 1021.1 0 20.4 27.0 41.9 110.0 104.7 360.2
03 07:30 12.9 80 9.02 9.5 13 19 1020.8 0 20.5 27.1 42.3 111.1 105.9 364.4
03 07:20 12.7 80 8.91 9.3 15 19 1020.6 0 20.3 27.0 42.0 110.1 104.6 360.0
03 07:10 12.4 81 8.85 9.2 9 9 1021 0 20.2 27.0 41.9 109.9 104.2 358.7
03 07:00 12.2 82 8.85 9.2 2 6 1021.5 0 20.2 27.1 42.0 110.2 104.6 359.7
03 06:50 12.1 82 8.79 9.1 6 6 1021.3 0 20.1 27.0 41.8 109.7 103.9 357.3
03 06:40 12 82 8.74 9 9 9 1020.8 0 20.0 26.9 41.6 109.2 103.3 355.2
03 06:30 11.8 83 8.74 9 9 13 1020.6 0 20.0 27.0 41.7 109.5 103.5 356.0
03 06:20 11.5 83 8.57 8.7 9 11 1020.1 0 19.6 26.8 41.2 108.0 101.5 349.1
03 06:10 11.4 83 8.52 8.6 11 13 1020.1 0 19.5 26.7 41.0 107.5 101.0 347.1
03 06:00 11.3 84 8.57 8.7 11 15 1019.7 0 19.6 26.8 41.2 108.2 101.8 349.9
03 05:50 11.3 83 8.47 8.5 11 13 1019.2 0 19.4 26.6 40.8 107.0 100.4 344.9
03 05:40 11.3 84 8.57 8.7 11 13 1019.3 0 19.6 26.8 41.2 108.2 101.7 349.8
03 05:30 11.2 83 8.41 8.4 6 9 1019.6 0 19.3 26.6 40.6 106.5 99.7 342.6
03 05:20 11.3 82 8.37 8.3 7 9 1019.6 0 19.2 26.5 40.4 106.0 99.0 340.3
03 05:00 11.6 80 8.32 8.3 9 15 1019.2 0 19.1 26.3 40.0 105.0 97.9 336.5
03 04:50 11.7 81 8.47 8.6 13 15 1018.7 0 19.4 26.5 40.6 106.4 99.8 343.0
03 04:40 11.8 80 8.42 8.5 9 11 1019.1 0 19.3 26.4 40.3 105.8 99.0 340.3
03 04:30 11.9 80 8.47 8.6 9 15 1018.9 0 19.4 26.5 40.5 106.2 99.6 342.2
03 04:20 11.7 80 8.37 8.4 11 11 1019.1 0 19.2 26.4 40.2 105.4 98.5 338.4
03 04:10 12 79 8.42 8.5 11 13 1019 0 19.3 26.3 40.2 105.5 98.8 339.4
03 04:00 12.1 77 8.26 8.2 7 11 1019.5 0 18.9 26.1 39.6 103.7 96.5 331.6
03 03:50 12.4 76 8.3 8.3 9 13 1019.1 0 19.0 26.0 39.5 103.7 96.6 332.1
03 03:40 12.5 76 8.36 8.4 9 11 1019 0 19.1 26.1 39.7 104.2 97.3 334.5
03 03:30 12.8 75 8.4 8.5 13 19 1018.8 0 19.2 26.1 39.7 104.2 97.5 335.0
03 03:20 12.8 75 8.4 8.5 13 15 1019 0 19.2 26.1 39.7 104.2 97.5 335.1
03 03:10 12.9 74 8.34 8.4 11 15 1019.1 0 19.1 26.0 39.5 103.5 96.6 331.9
03 03:00 13 74 8.39 8.5 13 17 1018.9 0 19.2 26.0 39.6 103.8 97.1 333.7
03 02:50 13.1 73 8.33 8.4 11 13 1019.7 0 19.0 25.9 39.3 103.1 96.2 330.7
03 02:40 13.2 72 8.27 8.3 11 13 1019.8 0 18.9 25.8 39.1 102.4 95.3 327.5
03 02:30 13.5 71 8.31 8.4 13 19 1019.4 0 19.0 25.7 39.1 102.4 95.4 328.0
03 02:20 13.8 70 8.34 8.4 13 17 1019.4 0 19.0 25.7 39.0 102.3 95.5 328.2
03 02:10 13.9 70 8.39 8.5 15 19 1019.4 0 19.1 25.8 39.2 102.7 96.0 330.1
03 02:00 14 69 8.32 8.4 15 24 1019.4 0 19.0 25.6 38.9 101.8 95.0 326.4
03 01:50 14.2 68 8.3 8.4 15 19 1019.6 0 18.9 25.5 38.7 101.4 94.5 324.7
03 01:40 14.2 68 8.3 8.4 15 17 1019.6 0 18.9 25.5 38.7 101.4 94.5 324.7
03 01:30 14.4 67 8.28 8.4 15 20 1019.9 0 18.9 25.5 38.5 101.0 94.0 323.1
03 01:20 14.5 66 8.21 8.2 17 19 1020 0 18.7 25.3 38.2 100.1 93.0 319.5
03 01:10 14.6 65 8.13 8.1 13 13 1020.4 0 18.5 25.2 37.9 99.2 91.9 315.6
03 01:00 14.7 63 7.93 7.7 17 26 1020.4 0 18.1 24.8 37.0 97.0 89.2 306.2
03 00:50 14.8 62 7.85 7.6 17 19 1020.4 0 17.9 24.7 36.7 96.0 88.0 302.2
03 00:40 14.9 61 7.77 7.5 19 22 1020.4 0 17.8 24.5 36.3 95.1 86.9 298.3
03 00:30 15 60 7.69 7.3 17 24 1020.6 0 17.6 24.4 36.0 94.2 85.8 294.4
03 00:20 15.1 59 7.61 7.2 15 19 1020.8 0 17.4 24.2 35.6 93.2 84.7 290.6
03 00:10 15.2 58 7.53 7 17 20 1020.8 0 17.2 24.1 35.3 92.3 83.6 286.7
03 00:00 15.3 57 7.44 6.8 17 24 1020.7 0 17.0 23.9 34.9 91.3 82.4 282.4
02 23:50 15.5 57 7.53 7 22 26 1020.8 0 17.2 24.0 35.2 92.0 83.3 285.6
02 23:40 15.5 56 7.4 6.8 19 24 1020.6 0 17.0 23.8 34.7 90.6 81.6 279.9
02 23:30 15.8 53 7.13 6.3 19 26 1020.7 0 16.4 23.3 33.5 87.6 78.0 267.3
02 23:20 15.9 52 7.04 6.1 20 24 1020.7 0 16.2 23.2 33.2 86.6 76.8 263.1
02 23:10 16.1 51 6.99 6 24 28 1020.7 0 16.1 23.0 32.9 85.9 76.0 260.3
02 23:00 16.3 51 7.08 6.2 20 30 1020.4 0 16.2 23.1 33.1 86.6 76.9 263.4
02 22:50 16.5 50 7.02 6.1 22 28 1020.6 0 16.1 23.0 32.8 85.8 76.0 260.3
02 22:40 16.7 50 7.11 6.2 17 20 1020.6 0 16.3 23.1 33.1 86.4 76.9 263.4
02 22:30 16.9 49 7.05 6.1 15 20 1020.6 0 16.2 22.9 32.8 85.6 76.0 260.2
02 22:20 17.1 49 7.13 6.3 15 19 1020.7 0 16.3 23.0 33.0 86.2 76.8 263.0
02 22:10 17.3 48 7.07 6.2 19 22 1020.5 0 16.2 22.9 32.7 85.4 75.8 259.8
02 22:00 17.4 47 6.96 6 19 32 1020.4 0 15.9 22.7 32.2 84.2 74.4 254.8
02 21:50 17.3 50 7.37 6.8 15 19 1020.4 0 16.8 23.3 33.8 88.3 79.4 272.4
02 21:40 17.3 51 7.51 7.1 15 19 1020.4 0 17.1 23.5 34.3 89.7 81.1 278.4
02 21:30 17.2 53 7.76 7.5 15 24 1020.1 0 17.6 23.9 35.3 92.3 84.3 289.3
02 21:20 17.3 53 7.81 7.6 15 22 1020 0 17.7 23.9 35.4 92.6 84.8 291.1
02 21:10 17.5 52 7.75 7.5 22 24 1020.3 0 17.6 23.8 35.1 91.8 83.8 287.9
02 21:00 17.7 51 7.69 7.4 22 28 1020 0 17.5 23.7 34.8 91.0 82.9 284.5
02 20:50 17.8 50 7.59 7.2 24 26 1020 0 17.3 23.5 34.4 89.9 81.6 279.9
02 20:40 18.2 47 7.3 6.7 19 22 1019.7 0 16.6 22.9 33.1 86.6 77.7 266.3
02 20:30 18.3 47 7.35 6.8 24 32 1019.4 0 16.7 23.0 33.3 86.9 78.1 268.0
02 20:20 18.4 46 7.23 6.6 26 30 1019.2 0 16.5 22.8 32.8 85.7 76.6 262.6
02 20:10 18.3 48 7.5 7.1 26 30 1018.9 0 17.0 23.2 33.8 88.4 79.9 274.2
02 20:00 18.5 47 7.44 7 28 39 1019.2 0 16.9 23.1 33.5 87.6 79.0 271.0
02 19:50 18.7 45 7.2 6.5 30 39 1018.8 0 16.4 22.6 32.5 85.0 75.9 260.3
02 19:40 18.8 44 7.09 6.3 32 35 1018.7 0 16.2 22.5 32.1 83.9 74.5 255.4
02 19:30 19.2 41 6.76 5.6 32 41 1018.5 0 15.5 21.9 30.8 80.3 70.3 240.7
02 19:20 19.6 42 7.09 6.3 32 37 1018.3 0 16.1 22.2 31.8 83.0 73.8 252.9
02 19:10 19.8 43 7.34 6.9 28 33 1018.3 0 16.6 22.6 32.6 85.2 76.5 262.4
02 19:00 20.4 41 7.25 6.7 32 41 1017.9 0 16.4 22.3 32.0 83.7 74.9 256.8
02 18:50 21.2 40 7.41 7.1 37 41 1018 0 16.7 22.3 32.3 84.3 76.0 260.7
02 18:40 21.1 42 7.74 7.7 33 35 1017.9 0 17.4 22.8 33.4 87.5 79.9 274.4
02 18:30 21.2 40 7.41 7.1 33 44 1017.5 0 16.7 22.3 32.2 84.3 75.9 260.6
02 18:20 21.7 40 7.63 7.5 35 39 1017.4 0 17.2 22.5 32.8 85.8 78.0 267.8
02 18:10 21.4 42 7.87 8 35 41 1017.3 0 17.7 22.9 33.8 88.4 81.0 278.5
02 18:00 21 41 7.51 7.3 33 43 1016.9 0 17.0 22.5 32.6 85.4 77.2 265.1
02 17:50 21.7 39 7.44 7.2 33 41 1017.2 0 16.8 22.2 32.1 84.0 75.8 260.1
02 17:40 22 38 7.37 7 32 35 1017.3 0 16.6 22.0 31.8 83.1 74.7 256.4
02 17:30 22.7 34 6.87 6 35 46 1017.1 0 15.6 21.2 29.8 77.9 68.5 234.7
02 17:20 23.6 33 7.02 6.4 33 37 1017 0 15.8 21.2 30.0 78.3 69.4 237.9
02 17:10 23 34 6.99 6.3 28 33 1017.3 0 15.8 21.3 30.1 78.7 69.6 238.5
02 17:00 23.7 31 6.63 5.6 32 37 1017.3 0 15.0 20.6 28.7 74.8 65.1 222.7
02 16:50 23.8 31 6.67 5.7 28 32 1017.5 0 15.1 20.7 28.8 75.1 65.4 224.0
02 16:40 24.5 30 6.71 5.8 28 32 1017.5 0 15.2 20.6 28.7 74.8 65.3 223.7
02 16:30 25.4 27 6.36 5.1 26 35 1017.2 0 14.4 19.9 27.2 71.0 60.9 208.3
02 16:20 25.6 29 6.9 6.3 24 30 1017.3 0 15.5 20.6 28.9 75.5 66.4 227.8
02 16:10 26 30 7.3 7.1 30 35 1017.1 0 16.3 21.0 30.1 78.5 70.4 241.6
02 16:00 25.4 30 7.06 6.6 28 37 1016.9 0 15.8 20.8 29.5 77.0 68.3 234.2
02 15:50 25.7 30 7.18 6.8 20 24 1016.9 0 16.1 20.9 29.8 77.8 69.3 237.9
02 15:40 26.2 28 6.89 6.3 24 28 1016.9 0 15.5 20.4 28.7 74.8 65.8 225.7
02 15:30 25.7 31 7.42 7.3 24 35 1016.7 0 16.6 21.2 30.5 79.8 71.9 246.9

Last Refresh: 03-Dec-2021 08:22:49

Bureau of Meteorology